Time;durP1;ratioP1;P1;durP2;ratioP2;P2;SDS_P1;SDS_P2;PMS_P1;PMS_P2;Temp;Humidity;BMP_temperature;BMP_pressure;BME280_temperature;BME280_humidity;BME280_pressure;Samples;Min_cycle;Max_cycle;Signal;HPM_P1;HPM_P2
2021/03/05 00:01:02;;;;;;;1.70;1.47;;;4.50;98.20;;;;;;5013033;28;20470;-76
2021/03/05 00:03:28;;;;;;;1.67;1.43;;;4.50;98.20;;;;;;5023509;28;21042;-77
2021/03/05 00:05:54;;;;;;;1.63;1.50;;;4.50;98.20;;;;;;5007113;28;20500;-77
2021/03/05 00:08:21;;;;;;;1.63;1.40;;;4.50;98.20;;;;;;5023153;28;20463;-77
2021/03/05 00:10:48;;;;;;;1.60;1.40;;;4.50;98.20;;;;;;5015064;28;20529;-77
2021/03/05 00:13:15;;;;;;;1.70;1.50;;;4.50;98.20;;;;;;5021787;28;20467;-77
2021/03/05 00:15:43;;;;;;;1.60;1.30;;;4.50;98.20;;;;;;5022673;28;20578;-77
2021/03/05 00:18:10;;;;;;;1.60;1.30;;;4.50;98.20;;;;;;5007518;28;20557;-77
2021/03/05 00:20:39;;;;;;;1.63;1.40;;;4.50;98.20;;;;;;5021758;28;20468;-77
2021/03/05 00:23:05;;;;;;;1.60;1.43;;;4.50;98.20;;;;;;5007277;28;20935;-77
2021/03/05 00:25:32;;;;;;;1.60;1.30;;;4.40;98.20;;;;;;5024891;28;20481;-77
2021/03/05 00:27:58;;;;;;;1.60;1.30;;;4.40;98.20;;;;;;5016399;28;20491;-77
2021/03/05 00:30:26;;;;;;;1.60;1.50;;;4.40;98.20;;;;;;5018352;28;20474;-77
2021/03/05 00:32:53;;;;;;;1.60;1.40;;;4.40;98.20;;;;;;5007299;28;20490;-77
2021/03/05 00:35:20;;;;;;;1.60;1.33;;;4.40;98.20;;;;;;5017985;28;20483;-77
2021/03/05 00:37:47;;;;;;;1.60;1.40;;;4.30;98.20;;;;;;5006527;28;20486;-77
2021/03/05 00:40:16;;;;;;;1.63;1.43;;;4.30;98.20;;;;;;5025481;28;20487;-78
2021/03/05 00:42:44;;;;;;;1.60;1.50;;;4.30;98.20;;;;;;5012928;28;20508;-77
2021/03/05 00:45:12;;;;;;;1.70;1.60;;;4.20;98.20;;;;;;5022861;28;20762;-77
2021/03/05 00:47:40;;;;;;;1.63;1.40;;;4.20;98.20;;;;;;5014442;28;20484;-77
2021/03/05 00:50:08;;;;;;;1.60;1.40;;;4.20;98.20;;;;;;5029076;28;20467;-77
2021/03/05 00:52:34;;;;;;;1.60;1.40;;;4.20;98.20;;;;;;4998955;28;20583;-78
2021/03/05 00:55:01;;;;;;;1.67;1.40;;;4.10;98.20;;;;;;5018844;28;20532;-78
2021/03/05 00:57:27;;;;;;;1.60;1.40;;;4.10;98.20;;;;;;5011944;28;20490;-77
2021/03/05 00:59:53;;;;;;;1.60;1.40;;;4.10;98.20;;;;;;5024391;28;20492;-77
2021/03/05 01:02:20;;;;;;;1.60;1.40;;;4.10;98.20;;;;;;5012433;28;21052;-77
2021/03/05 01:04:48;;;;;;;1.67;1.40;;;4.00;98.20;;;;;;5024291;28;20499;-78
2021/03/05 01:07:14;;;;;;;1.70;1.40;;;4.00;98.20;;;;;;5011491;28;20495;-77
2021/03/05 01:09:41;;;;;;;1.70;1.50;;;4.00;98.20;;;;;;5020508;28;20970;-77
2021/03/05 01:12:09;;;;;;;1.63;1.40;;;4.00;98.20;;;;;;5018958;28;20491;-78
2021/03/05 01:14:35;;;;;;;1.70;1.43;;;4.00;98.20;;;;;;5020608;28;20483;-78
2021/03/05 01:17:02;;;;;;;1.70;1.60;;;4.00;98.20;;;;;;5015557;28;20900;-77
2021/03/05 01:19:29;;;;;;;1.67;1.50;;;4.00;98.20;;;;;;5019187;28;21069;-77
2021/03/05 01:21:56;;;;;;;1.67;1.40;;;4.00;98.20;;;;;;5012437;28;20560;-77
2021/03/05 01:24:22;;;;;;;1.60;1.40;;;4.00;98.20;;;;;;5016478;28;20503;-77
2021/03/05 01:26:49;;;;;;;1.60;1.40;;;4.00;98.20;;;;;;5008696;28;20491;-77
2021/03/05 01:29:15;;;;;;;1.60;1.40;;;4.00;98.20;;;;;;5011318;28;20460;-77
2021/03/05 01:31:41;;;;;;;1.63;1.40;;;4.00;98.20;;;;;;5011112;28;20494;-77
2021/03/05 01:34:08;;;;;;;1.63;1.40;;;3.90;98.20;;;;;;5024055;28;20471;-77
2021/03/05 01:36:35;;;;;;;1.60;1.43;;;3.90;98.20;;;;;;5013882;28;20894;-77
2021/03/05 01:39:02;;;;;;;1.70;1.43;;;3.90;98.20;;;;;;5018017;28;21009;-77
2021/03/05 01:41:29;;;;;;;1.60;1.40;;;3.90;98.20;;;;;;5009635;28;20495;-77
2021/03/05 01:43:55;;;;;;;1.60;1.30;;;3.90;98.20;;;;;;5014515;28;21657;-77
2021/03/05 01:46:22;;;;;;;1.70;1.50;;;3.90;98.20;;;;;;5010375;28;21037;-78
2021/03/05 01:48:49;;;;;;;1.67;1.40;;;3.80;98.20;;;;;;5014651;28;20460;-77
2021/03/05 01:51:17;;;;;;;1.60;1.30;;;3.80;98.20;;;;;;5009309;28;20479;-77
2021/03/05 01:53:45;;;;;;;1.60;1.40;;;3.80;98.20;;;;;;5019258;28;20472;-77
2021/03/05 01:56:41;;;;;;;1.60;1.40;;;3.80;98.20;;;;;;5005904;28;20949;-77
2021/03/05 01:59:09;;;;;;;1.60;1.40;;;3.80;98.20;;;;;;5025481;28;20753;-77
2021/03/05 02:01:36;;;;;;;1.60;1.33;;;3.70;98.20;;;;;;5005436;28;20488;-77
2021/03/05 02:04:04;;;;;;;1.60;1.40;;;3.70;98.20;;;;;;5011826;28;20467;-77
2021/03/05 02:06:30;;;;;;;1.67;1.50;;;3.70;98.20;;;;;;5008118;28;20816;-77
2021/03/05 02:08:57;;;;;;;1.70;1.50;;;3.70;98.20;;;;;;5024327;28;20696;-77
2021/03/05 02:11:25;;;;;;;1.60;1.40;;;3.70;98.20;;;;;;5013427;28;20496;-77
2021/03/05 02:13:54;;;;;;;1.70;1.50;;;3.70;98.20;;;;;;5023048;28;20478;-77
2021/03/05 02:16:31;;;;;;;1.70;1.50;;;3.70;98.20;;;;;;5001073;28;20493;-77
2021/03/05 02:19:06;;;;;;;1.60;1.40;;;3.70;98.20;;;;;;5008475;28;20514;-77
2021/03/05 02:22:20;;;;;;;1.67;1.47;;;3.70;98.20;;;;;;5009189;28;20483;-77
2021/03/05 02:25:09;;;;;;;1.60;1.40;;;3.70;98.20;;;;;;5014732;28;20554;-78
2021/03/05 02:28:11;;;;;;;1.67;1.40;;;3.70;98.20;;;;;;5014450;28;20487;-77
2021/03/05 02:31:12;;;;;;;1.60;1.40;;;3.70;98.20;;;;;;5022254;28;20470;-77
2021/03/05 02:33:45;;;;;;;1.70;1.40;;;3.80;98.20;;;;;;4993955;28;20486;-77
2021/03/05 02:36:17;;;;;;;1.60;1.40;;;3.80;98.20;;;;;;4999730;28;20959;-77
2021/03/05 02:39:05;;;;;;;1.60;1.40;;;3.80;98.20;;;;;;5015980;28;20493;-77
2021/03/05 02:41:35;;;;;;;1.60;1.30;;;3.80;98.20;;;;;;5001404;28;20484;-77
2021/03/05 02:44:03;;;;;;;1.67;1.40;;;3.80;98.20;;;;;;5013791;28;20983;-77
2021/03/05 02:46:32;;;;;;;1.63;1.40;;;3.90;98.20;;;;;;5015404;28;20488;-77
2021/03/05 02:49:00;;;;;;;1.60;1.40;;;3.90;98.20;;;;;;5018687;28;20463;-77
2021/03/05 02:51:30;;;;;;;1.63;1.40;;;3.90;98.20;;;;;;5012373;28;20502;-78
2021/03/05 02:54:00;;;;;;;1.60;1.30;;;3.90;98.20;;;;;;5020661;28;20467;-77
2021/03/05 02:56:27;;;;;;;1.67;1.40;;;3.90;98.20;;;;;;5013388;28;20475;-77
2021/03/05 02:58:55;;;;;;;1.60;1.40;;;3.90;98.20;;;;;;5019613;28;20540;-78
2021/03/05 03:01:24;;;;;;;1.60;1.40;;;4.00;98.20;;;;;;5010685;28;21041;-77
2021/03/05 03:03:54;;;;;;;1.60;1.30;;;4.00;98.20;;;;;;5020857;28;20473;-78
2021/03/05 03:06:21;;;;;;;1.60;1.30;;;4.00;98.20;;;;;;5010244;28;20789;-77
2021/03/05 03:08:48;;;;;;;1.63;1.40;;;4.00;98.20;;;;;;5017039;28;20470;-78
2021/03/05 03:11:15;;;;;;;1.70;1.50;;;4.00;98.20;;;;;;5006293;28;20505;-77
2021/03/05 03:13:42;;;;;;;1.77;1.67;;;4.00;98.20;;;;;;5013443;28;20480;-78
2021/03/05 03:16:09;;;;;;;1.70;1.50;;;4.10;98.20;;;;;;5005190;28;20807;-78
2021/03/05 03:18:39;;;;;;;1.70;1.40;;;4.10;98.20;;;;;;5016723;28;20499;-77
2021/03/05 03:21:07;;;;;;;1.60;1.40;;;4.10;98.20;;;;;;5002040;28;21086;-77
2021/03/05 03:23:34;;;;;;;1.60;1.40;;;4.10;98.20;;;;;;5003232;28;20547;-78
2021/03/05 03:26:01;;;;;;;1.63;1.40;;;4.10;98.20;;;;;;5006954;28;20518;-77
2021/03/05 03:28:27;;;;;;;1.60;1.40;;;4.10;98.20;;;;;;5016770;28;20468;-78
2021/03/05 03:30:54;;;;;;;1.67;1.40;;;4.10;98.20;;;;;;5008033;28;20478;-78
2021/03/05 03:33:21;;;;;;;1.60;1.40;;;4.10;98.20;;;;;;5014230;28;20884;-77
2021/03/05 03:35:48;;;;;;;1.70;1.50;;;4.10;98.20;;;;;;5014671;28;20499;-77
2021/03/05 03:38:15;;;;;;;1.60;1.40;;;4.10;98.20;;;;;;5006324;28;21038;-78
2021/03/05 03:40:43;;;;;;;1.60;1.30;;;4.10;98.20;;;;;;5022261;28;20472;-77
2021/03/05 03:43:10;;;;;;;1.60;1.30;;;4.10;98.20;;;;;;5008957;28;20543;-77
2021/03/05 03:45:40;;;;;;;1.60;1.40;;;4.10;98.20;;;;;;5018496;28;20487;-78
2021/03/05 03:48:07;;;;;;;1.60;1.40;;;4.10;98.20;;;;;;5008780;28;20494;-78
2021/03/05 03:50:37;;;;;;;2.10;1.90;;;4.10;98.20;;;;;;5020765;28;20468;-77
2021/03/05 03:53:10;;;;;;;1.60;1.40;;;4.10;98.20;;;;;;5004335;28;20629;-77
2021/03/05 03:55:38;;;;;;;1.60;1.40;;;4.10;98.20;;;;;;5020425;28;20791;-77
2021/03/05 03:58:05;;;;;;;1.60;1.40;;;4.10;98.20;;;;;;5009601;28;20490;-77
2021/03/05 04:00:33;;;;;;;1.67;1.50;;;4.00;98.20;;;;;;5021208;28;20487;-78
2021/03/05 04:03:03;;;;;;;1.60;1.37;;;4.00;98.20;;;;;;5010849;28;20549;-78
2021/03/05 04:05:31;;;;;;;1.70;1.60;;;4.00;98.20;;;;;;5016706;28;20502;-78
2021/03/05 04:07:59;;;;;;;1.67;1.40;;;3.90;98.20;;;;;;5007133;28;20490;-78
2021/03/05 04:10:27;;;;;;;1.67;1.50;;;3.90;98.20;;;;;;5024521;28;20696;-78
2021/03/05 04:12:56;;;;;;;1.60;1.40;;;3.90;98.20;;;;;;4997198;28;21102;-78
2021/03/05 04:15:24;;;;;;;1.60;1.30;;;3.90;98.20;;;;;;5021354;28;20484;-77
2021/03/05 04:17:51;;;;;;;1.67;1.47;;;3.90;98.20;;;;;;5007745;28;20482;-78
2021/03/05 04:20:21;;;;;;;1.60;1.50;;;3.90;98.20;;;;;;5023062;28;20487;-78
2021/03/05 04:22:48;;;;;;;1.60;1.40;;;3.90;98.20;;;;;;4994391;28;20497;-78
2021/03/05 04:25:15;;;;;;;1.60;1.40;;;3.90;98.20;;;;;;5022209;28;20498;-78
2021/03/05 04:27:42;;;;;;;1.70;1.43;;;3.90;98.20;;;;;;5009546;28;20483;-78
2021/03/05 04:30:11;;;;;;;1.60;1.40;;;4.00;98.20;;;;;;5018106;28;20460;-78
2021/03/05 04:32:39;;;;;;;1.60;1.40;;;4.00;98.20;;;;;;5009715;28;20730;-78
2021/03/05 04:35:07;;;;;;;1.67;1.40;;;4.00;98.20;;;;;;5019050;28;20540;-78
2021/03/05 04:37:33;;;;;;;1.83;1.73;;;4.00;98.20;;;;;;4996993;28;20479;-78
2021/03/05 04:39:59;;;;;;;1.60;1.40;;;4.00;98.20;;;;;;5022489;28;20852;-78
2021/03/05 04:42:26;;;;;;;1.80;1.50;;;4.00;98.20;;;;;;5009424;28;20544;-78
2021/03/05 04:44:52;;;;;;;1.63;1.40;;;4.00;98.20;;;;;;5024931;28;20916;-78
2021/03/05 04:47:19;;;;;;;1.60;1.40;;;4.00;98.20;;;;;;5012673;28;20971;-78
2021/03/05 04:49:45;;;;;;;1.60;1.30;;;4.00;98.20;;;;;;5023730;28;20471;-78
2021/03/05 04:52:12;;;;;;;1.60;1.40;;;4.00;98.20;;;;;;5008013;28;20569;-78
2021/03/05 04:54:38;;;;;;;1.60;1.40;;;4.00;98.20;;;;;;5021036;28;20490;-78
2021/03/05 04:57:05;;;;;;;1.60;1.40;;;4.00;98.20;;;;;;5010990;28;20510;-78
2021/03/05 04:59:31;;;;;;;2.57;2.37;;;4.00;98.20;;;;;;5020446;28;20869;-78
2021/03/05 05:01:57;;;;;;;1.60;1.40;;;4.00;98.20;;;;;;5011044;28;20483;-78
2021/03/05 05:04:25;;;;;;;1.60;1.40;;;4.00;98.20;;;;;;5017283;28;20488;-78
2021/03/05 05:06:51;;;;;;;1.63;1.40;;;3.90;98.20;;;;;;5013868;28;20509;-78
2021/03/05 05:09:18;;;;;;;1.67;1.50;;;3.90;98.20;;;;;;5016190;28;20475;-78
2021/03/05 05:11:44;;;;;;;2.43;2.23;;;3.90;98.20;;;;;;5010861;28;20485;-77
2021/03/05 05:14:11;;;;;;;1.60;1.40;;;3.90;98.20;;;;;;5024492;28;20520;-78
2021/03/05 05:16:37;;;;;;;1.60;1.40;;;3.90;98.20;;;;;;5011458;28;21002;-78
2021/03/05 05:19:04;;;;;;;1.60;1.40;;;3.90;98.20;;;;;;5020417;28;20549;-78
2021/03/05 05:21:31;;;;;;;1.60;1.37;;;3.80;98.20;;;;;;5001026;28;20488;-78
2021/03/05 05:23:57;;;;;;;1.60;1.40;;;3.80;98.20;;;;;;5016112;28;20957;-78
2021/03/05 05:26:24;;;;;;;1.60;1.40;;;3.80;98.20;;;;;;5006942;28;20553;-77
2021/03/05 05:28:51;;;;;;;1.77;1.67;;;3.80;98.20;;;;;;5021412;28;20474;-78
2021/03/05 05:31:17;;;;;;;1.63;1.33;;;3.80;98.20;;;;;;5012626;28;20529;-78
2021/03/05 05:33:43;;;;;;;1.60;1.40;;;3.80;98.20;;;;;;5018941;28;20981;-78
2021/03/05 05:36:10;;;;;;;1.60;1.40;;;3.80;98.20;;;;;;5014245;28;21388;-78
2021/03/05 05:38:37;;;;;;;1.70;1.60;;;3.80;98.20;;;;;;5026639;28;21102;-78
2021/03/05 05:41:04;;;;;;;1.60;1.40;;;3.80;98.20;;;;;;5005074;28;20531;-78
2021/03/05 05:43:31;;;;;;;1.70;1.47;;;3.80;98.20;;;;;;5026018;28;20499;-79
2021/03/05 05:46:02;;;;;;;1.60;1.40;;;3.80;98.20;;;;;;5010055;28;20472;-79
2021/03/05 05:48:29;;;;;;;1.60;1.33;;;3.80;98.20;;;;;;5021387;28;20471;-79
2021/03/05 05:50:58;;;;;;;1.60;1.43;;;3.80;98.20;;;;;;5012711;28;20456;-79
2021/03/05 05:53:30;;;;;;;1.60;1.40;;;3.70;98.20;;;;;;5021924;28;21006;-78
2021/03/05 05:55:58;;;;;;;1.63;1.37;;;3.70;98.20;;;;;;5007490;28;20495;-79
2021/03/05 05:58:27;;;;;;;1.60;1.40;;;3.70;98.20;;;;;;5013893;28;20502;-79
2021/03/05 06:00:56;;;;;;;1.60;1.30;;;3.70;98.20;;;;;;5014322;28;20822;-78
2021/03/05 06:03:27;;;;;;;1.60;1.40;;;3.60;98.20;;;;;;5022200;28;20477;-78
2021/03/05 06:05:55;;;;;;;1.60;1.40;;;3.60;98.20;;;;;;5011847;28;20524;-78
2021/03/05 06:08:22;;;;;;;1.60;1.50;;;3.60;98.20;;;;;;5035460;22;20579;-77
2021/03/05 06:10:48;;;;;;;1.60;1.40;;;3.60;98.20;;;;;;5008449;28;20488;-78
2021/03/05 06:13:16;;;;;;;1.60;1.40;;;3.50;98.20;;;;;;5017290;28;20459;-78
2021/03/05 06:15:42;;;;;;;1.73;1.63;;;3.50;98.20;;;;;;5014078;28;20514;-77
2021/03/05 06:18:29;;;;;;;1.60;1.30;;;3.50;98.20;;;;;;5007949;28;20491;-78
2021/03/05 06:20:56;;;;;;;1.70;1.60;;;3.40;98.20;;;;;;5000867;28;21173;-78
2021/03/05 06:23:24;;;;;;;1.70;1.50;;;3.40;98.20;;;;;;5017210;28;20467;-78
2021/03/05 06:25:58;;;;;;;1.70;1.60;;;3.30;98.20;;;;;;5001265;28;20464;-78
2021/03/05 06:28:26;;;;;;;1.67;1.40;;;3.20;98.20;;;;;;5015901;28;20490;-77
2021/03/05 06:30:52;;;;;;;4.80;4.50;;;3.20;98.20;;;;;;5006789;28;20868;-78
2021/03/05 06:33:27;;;;;;;1.60;1.40;;;3.10;98.20;;;;;;5016518;28;20467;-77
2021/03/05 06:35:54;;;;;;;1.70;1.50;;;3.00;98.20;;;;;;5006116;28;20458;-77
2021/03/05 06:38:40;;;;;;;1.70;1.40;;;2.90;98.20;;;;;;5021891;28;20545;-78
2021/03/05 06:41:17;;;;;;;1.60;1.40;;;2.90;98.20;;;;;;5000899;28;20465;-77
2021/03/05 06:43:45;;;;;;;1.70;1.50;;;2.90;98.20;;;;;;5007002;28;20467;-77
2021/03/05 06:46:37;;;;;;;1.70;1.57;;;2.80;98.20;;;;;;5004464;28;20530;-77
2021/03/05 06:49:06;;;;;;;1.70;1.50;;;2.80;98.20;;;;;;5012469;28;20534;-77
2021/03/05 06:51:32;;;;;;;1.60;1.40;;;2.70;98.20;;;;;;5009168;28;20479;-77
2021/03/05 06:54:09;;;;;;;1.63;1.40;;;2.70;98.20;;;;;;5016061;28;20463;-76
2021/03/05 06:56:38;;;;;;;1.70;1.60;;;2.70;98.20;;;;;;4995762;28;20480;-76
2021/03/05 06:59:10;;;;;;;1.63;1.40;;;2.60;98.20;;;;;;5005216;28;20606;-76
2021/03/05 07:01:51;;;;;;;1.70;1.57;;;2.60;98.20;;;;;;5009814;28;20483;-75
2021/03/05 07:04:20;;;;;;;1.70;1.60;;;2.60;98.20;;;;;;5014216;28;20916;-77
2021/03/05 07:06:55;;;;;;;1.63;1.40;;;2.60;98.20;;;;;;5004801;28;20868;-76
2021/03/05 07:09:24;;;;;;;1.60;1.40;;;2.70;98.20;;;;;;5012225;28;20466;-76
2021/03/05 07:11:52;;;;;;;1.67;1.53;;;2.80;98.20;;;;;;5004467;28;20475;-76
2021/03/05 07:14:24;;;;;;;1.63;1.50;;;2.90;98.20;;;;;;5014617;28;20464;-77
2021/03/05 07:16:51;;;;;;;1.63;1.50;;;3.00;98.20;;;;;;5001377;28;21174;-76
2021/03/05 07:19:19;;;;;;;1.60;1.40;;;3.20;98.20;;;;;;5016088;28;20929;-76
2021/03/05 07:21:48;;;;;;;1.70;1.50;;;3.20;98.20;;;;;;5003532;28;20493;-77
2021/03/05 07:24:16;;;;;;;1.70;1.50;;;3.30;98.20;;;;;;5015455;28;21021;-77
2021/03/05 07:26:43;;;;;;;1.67;1.40;;;3.40;98.20;;;;;;5006905;28;20540;-78
2021/03/05 07:29:17;;;;;;;1.70;1.50;;;3.40;98.20;;;;;;5011434;28;20515;-77
2021/03/05 07:31:45;;;;;;;1.67;1.40;;;3.50;98.20;;;;;;4998210;28;20480;-78
2021/03/05 07:34:18;;;;;;;1.70;1.50;;;3.50;98.20;;;;;;5006694;28;20467;-77
2021/03/05 07:36:49;;;;;;;1.60;1.40;;;3.70;98.20;;;;;;4996071;28;20495;-76
2021/03/05 07:39:23;;;;;;;1.60;1.40;;;3.80;98.20;;;;;;5008152;28;20497;-77
2021/03/05 07:41:51;;;;;;;1.60;1.40;;;3.80;98.20;;;;;;5002530;28;21049;-77
2021/03/05 07:44:18;;;;;;;1.63;1.50;;;4.00;98.20;;;;;;5008981;28;20506;-78
2021/03/05 07:46:45;;;;;;;1.70;1.40;;;4.10;98.20;;;;;;5007825;28;20486;-78
2021/03/05 07:49:13;;;;;;;1.67;1.50;;;4.20;96.70;;;;;;5015931;28;20480;-76
2021/03/05 07:51:40;;;;;;;1.60;1.47;;;4.20;95.60;;;;;;4997915;28;20664;-77
2021/03/05 07:54:07;;;;;;;1.60;1.40;;;4.00;95.60;;;;;;5006136;28;20468;-76
2021/03/05 07:56:44;;;;;;;1.70;1.50;;;4.10;95.50;;;;;;4997144;28;20526;-76
2021/03/05 07:59:31;;;;;;;1.60;1.40;;;4.10;95.50;;;;;;5008134;28;20491;-77
2021/03/05 08:02:01;;;;;;;1.63;1.40;;;4.10;95.40;;;;;;5006096;28;20577;-75
2021/03/05 08:04:58;;;;;;;1.60;1.40;;;4.30;95.70;;;;;;5011424;28;20512;-76
2021/03/05 08:07:25;;;;;;;1.60;1.30;;;4.20;94.80;;;;;;4996225;28;20486;-77
2021/03/05 08:09:52;;;;;;;1.70;1.50;;;4.20;94.80;;;;;;5016033;28;20455;-76
2021/03/05 08:12:34;;;;;;;1.60;1.50;;;4.20;95.00;;;;;;4994263;28;20484;-78
2021/03/05 08:15:23;;;;;;;1.60;1.30;;;4.40;95.00;;;;;;5014308;28;21037;-77
2021/03/05 08:17:52;;;;;;;1.60;1.30;;;4.50;94.90;;;;;;5009999;28;20493;-77
2021/03/05 08:20:48;;;;;;;1.60;1.40;;;4.60;94.70;;;;;;5017217;28;20508;-77
2021/03/05 08:23:16;;;;;;;1.63;1.43;;;4.80;94.60;;;;;;4993428;28;20493;-76
2021/03/05 08:25:53;;;;;;;1.60;1.40;;;4.80;93.60;;;;;;5014764;28;20837;-76
2021/03/05 08:28:43;;;;;;;1.60;1.30;;;4.80;93.30;;;;;;4988218;28;20574;-77
2021/03/05 08:31:34;;;;;;;1.70;1.50;;;4.80;93.30;;;;;;5006651;28;21039;-78
2021/03/05 08:34:25;;;;;;;1.60;1.30;;;4.90;93.70;;;;;;5019645;28;20796;-76
2021/03/05 08:36:52;;;;;;;1.60;1.30;;;5.00;93.00;;;;;;5010280;28;20582;-77
2021/03/05 08:39:27;;;;;;;2.47;2.27;;;5.10;92.30;;;;;;5015059;28;20488;-77
2021/03/05 08:42:32;;;;;;;1.70;1.43;;;5.10;92.50;;;;;;5006046;28;20490;-77
2021/03/05 08:45:14;;;;;;;1.70;1.53;;;5.20;92.70;;;;;;5016084;28;21103;-78
2021/03/05 08:47:42;;;;;;;1.60;1.30;;;5.40;93.40;;;;;;4994423;28;20498;-78
2021/03/05 08:50:11;;;;;;;1.60;1.30;;;5.50;92.50;;;;;;5017871;28;20950;-78
2021/03/05 08:52:40;;;;;;;1.70;1.40;;;5.50;91.40;;;;;;5007452;28;21132;-78
2021/03/05 08:55:08;;;;;;;1.60;1.40;;;5.60;91.50;;;;;;5022259;28;20468;-77
2021/03/05 08:57:38;;;;;;;1.60;1.30;;;5.70;91.90;;;;;;4996143;28;21022;-78
2021/03/05 09:00:08;;;;;;;1.60;1.27;;;5.70;90.30;;;;;;5012383;28;20527;-77
2021/03/05 09:02:35;;;;;;;1.60;1.37;;;5.80;91.60;;;;;;5010491;28;20491;-77
2021/03/05 09:05:01;;;;;;;1.60;1.30;;;5.80;90.80;;;;;;5017303;28;20471;-78
2021/03/05 09:07:29;;;;;;;1.60;1.30;;;5.90;90.50;;;;;;5011220;28;20583;-77
2021/03/05 09:09:56;;;;;;;1.60;1.30;;;5.90;90.40;;;;;;5005621;28;20468;-77
2021/03/05 09:12:22;;;;;;;1.60;1.20;;;5.90;90.80;;;;;;4991363;28;20777;-77
2021/03/05 09:14:58;;;;;;;1.60;1.30;;;6.00;91.00;;;;;;5005730;28;20825;-76
2021/03/05 09:17:24;;;;;;;1.60;1.40;;;6.10;90.70;;;;;;4997972;28;21296;-78
2021/03/05 09:19:51;;;;;;;1.60;1.27;;;6.30;91.00;;;;;;5007232;28;20484;-78
2021/03/05 09:22:19;;;;;;;1.60;1.40;;;6.30;90.40;;;;;;5004047;28;20499;-78
2021/03/05 09:24:55;;;;;;;1.60;1.30;;;6.20;89.50;;;;;;5015395;28;20547;-78
2021/03/05 09:27:24;;;;;;;1.60;1.30;;;6.10;90.30;;;;;;5000252;28;20483;-77
2021/03/05 09:29:51;;;;;;;1.60;1.40;;;6.00;89.90;;;;;;5008778;28;20470;-78
2021/03/05 09:32:17;;;;;;;1.60;1.30;;;6.00;90.00;;;;;;4992293;28;20484;-78
2021/03/05 09:34:58;;;;;;;1.60;1.30;;;6.10;91.10;;;;;;5009547;28;20463;-77
2021/03/05 09:37:26;;;;;;;1.60;1.30;;;6.10;90.00;;;;;;5001758;28;20483;-78
2021/03/05 09:39:55;;;;;;;1.60;1.20;;;6.10;89.80;;;;;;5009068;28;20757;-78
2021/03/05 09:42:42;;;;;;;1.60;1.30;;;6.20;89.50;;;;;;4999045;28;20487;-79
2021/03/05 09:45:10;;;;;;;1.60;1.30;;;6.20;88.80;;;;;;5007825;28;21065;-78
2021/03/05 09:47:45;;;;;;;1.60;1.30;;;6.30;89.20;;;;;;5002447;28;20487;-77
2021/03/05 09:50:19;;;;;;;1.60;1.30;;;6.40;88.40;;;;;;5006503;28;20455;-78
2021/03/05 09:52:46;;;;;;;1.60;1.40;;;6.40;88.40;;;;;;4984076;28;20488;-74
2021/03/05 09:55:28;;;;;;;1.60;1.20;;;6.50;88.10;;;;;;5005601;28;20490;-78
2021/03/05 09:57:55;;;;;;;1.60;1.40;;;6.50;87.70;;;;;;4997652;28;20486;-78
2021/03/05 10:00:32;;;;;;;1.60;1.20;;;6.60;88.10;;;;;;5004600;28;20868;-78
2021/03/05 10:03:03;;;;;;;1.60;1.30;;;6.70;88.10;;;;;;5002199;28;20857;-77
2021/03/05 10:05:30;;;;;;;1.60;1.40;;;6.70;88.40;;;;;;5009244;28;20477;-75
2021/03/05 10:07:56;;;;;;;1.60;1.40;;;6.60;87.30;;;;;;5000046;28;20868;-77
2021/03/05 10:10:24;;;;;;;1.60;1.33;;;6.40;87.30;;;;;;5002044;28;20870;-79
2021/03/05 10:12:54;;;;;;;1.60;1.43;;;6.50;88.10;;;;;;4979742;28;20488;-77
2021/03/05 10:15:21;;;;;;;1.60;1.30;;;6.50;86.80;;;;;;5009615;28;20478;-77
2021/03/05 10:17:47;;;;;;;1.60;1.30;;;6.70;87.20;;;;;;4983280;28;20584;-75
2021/03/05 10:20:14;;;;;;;1.60;1.20;;;6.70;86.80;;;;;;5007427;28;20560;-78
2021/03/05 10:22:41;;;;;;;1.60;1.30;;;6.80;86.00;;;;;;4986323;28;20484;-77
2021/03/05 10:25:11;;;;;;;1.60;1.30;;;6.90;86.80;;;;;;5004497;28;20464;-77
2021/03/05 10:27:42;;;;;;;1.60;1.20;;;7.20;86.30;;;;;;4994064;28;20502;-78
2021/03/05 10:30:10;;;;;;;1.60;1.20;;;7.40;86.20;;;;;;5007890;28;20670;-77
2021/03/05 10:32:43;;;;;;;1.60;1.30;;;7.50;84.30;;;;;;4989366;28;21165;-76
2021/03/05 10:35:11;;;;;;;1.60;1.27;;;7.60;85.10;;;;;;5011559;28;20558;-77
2021/03/05 10:37:38;;;;;;;1.60;1.20;;;7.30;83.00;;;;;;5000389;28;20973;-78
2021/03/05 10:40:07;;;;;;;1.60;1.30;;;7.00;84.30;;;;;;5006208;28;20491;-78
2021/03/05 10:42:33;;;;;;;1.60;1.30;;;6.90;85.60;;;;;;4985894;28;20491;-78
2021/03/05 10:45:01;;;;;;;1.60;1.30;;;7.10;86.00;;;;;;5012168;28;20846;-76
2021/03/05 10:47:29;;;;;;;1.70;1.60;;;7.20;85.40;;;;;;4986602;28;20502;-75
2021/03/05 10:49:55;;;;;;;1.57;1.23;;;7.00;84.10;;;;;;5007893;28;20973;-76
2021/03/05 10:52:22;;;;;;;1.60;1.30;;;6.80;84.60;;;;;;5000393;28;20491;-76
2021/03/05 10:54:50;;;;;;;1.57;1.20;;;6.90;85.50;;;;;;5007329;28;20848;-76
2021/03/05 10:57:17;;;;;;;1.53;1.20;;;7.00;85.10;;;;;;4995139;28;20490;-75
2021/03/05 10:59:44;;;;;;;1.60;1.30;;;7.00;84.80;;;;;;5007084;28;21128;-75
2021/03/05 11:02:12;;;;;;;1.57;1.20;;;6.90;84.30;;;;;;5000276;28;20475;-76
2021/03/05 11:04:38;;;;;;;1.57;1.20;;;6.90;84.10;;;;;;5002844;28;20551;-77
2021/03/05 11:07:04;;;;;;;1.53;1.20;;;6.90;83.00;;;;;;4998322;28;20483;-77
2021/03/05 11:09:31;;;;;;;1.70;1.20;;;6.90;83.20;;;;;;5007442;28;20463;-77
2021/03/05 11:11:59;;;;;;;1.60;1.30;;;7.00;82.40;;;;;;5004129;28;20487;-77
2021/03/05 11:14:26;;;;;;;1.60;1.20;;;7.00;82.60;;;;;;5009068;28;20467;-76
2021/03/05 11:16:53;;;;;;;1.60;1.40;;;6.90;82.70;;;;;;5007405;28;20479;-76
2021/03/05 11:19:21;;;;;;;1.53;1.20;;;6.90;83.00;;;;;;5009424;28;20487;-77
2021/03/05 11:21:47;;;;;;;1.53;1.20;;;6.90;83.10;;;;;;5005332;28;20486;-78
2021/03/05 11:24:14;;;;;;;1.53;1.20;;;6.90;83.70;;;;;;5012307;28;20474;-77
2021/03/05 11:26:41;;;;;;;1.60;1.30;;;7.00;83.70;;;;;;4996097;28;20476;-77
2021/03/05 11:29:07;;;;;;;1.57;1.20;;;6.90;82.30;;;;;;5008004;28;20484;-77
2021/03/05 11:31:34;;;;;;;1.60;1.30;;;6.70;82.00;;;;;;4991748;28;20494;-76
2021/03/05 11:34:01;;;;;;;1.53;1.20;;;6.50;83.00;;;;;;5001505;28;20739;-76
2021/03/05 11:36:28;;;;;;;1.60;1.30;;;6.50;83.20;;;;;;4998296;28;20514;-74
2021/03/05 11:38:55;;;;;;;1.60;1.20;;;6.40;82.70;;;;;;5008199;28;20594;-74
2021/03/05 11:41:22;;;;;;;1.57;1.20;;;6.30;82.70;;;;;;4995054;28;20480;-76
2021/03/05 11:43:49;;;;;;;1.60;1.30;;;6.40;82.80;;;;;;4995691;28;20978;-75
2021/03/05 11:46:17;;;;;;;1.53;1.20;;;6.60;82.90;;;;;;5007908;28;20482;-77
2021/03/05 11:48:44;;;;;;;1.60;1.30;;;6.90;83.00;;;;;;5012561;28;20576;-78
2021/03/05 11:51:11;;;;;;;1.57;1.20;;;7.10;81.90;;;;;;5004975;28;20871;-78
2021/03/05 11:53:38;;;;;;;1.60;1.20;;;7.30;82.10;;;;;;5016984;28;21104;-75
2021/03/05 11:56:05;;;;;;;1.57;1.20;;;7.30;81.40;;;;;;5008220;28;20459;-78
2021/03/05 11:58:31;;;;;;;1.57;1.20;;;7.60;81.40;;;;;;5011763;28;20486;-77
2021/03/05 12:00:58;;;;;;;1.60;1.20;;;7.70;79.30;;;;;;5001161;28;20491;-77
2021/03/05 12:03:24;;;;;;;1.60;1.20;;;7.80;79.80;;;;;;5015724;28;20602;-76
2021/03/05 12:05:51;;;;;;;1.60;1.20;;;8.00;80.90;;;;;;4999804;28;20470;-76
2021/03/05 12:08:17;;;;;;;1.60;1.20;;;8.00;77.70;;;;;;5009458;28;20943;-76
2021/03/05 12:10:45;;;;;;;1.60;1.20;;;8.10;77.90;;;;;;5008405;28;20467;-77
2021/03/05 12:13:11;;;;;;;1.53;1.10;;;8.10;78.20;;;;;;4980303;28;21139;-75
2021/03/05 12:15:38;;;;;;;1.60;1.30;;;8.10;78.30;;;;;;5009571;28;20545;-77
2021/03/05 12:18:05;;;;;;;1.60;1.20;;;8.20;78.70;;;;;;5001786;28;20495;-77
2021/03/05 12:20:31;;;;;;;1.53;1.20;;;8.30;77.70;;;;;;5011658;28;20490;-77
2021/03/05 12:22:58;;;;;;;1.60;1.27;;;8.40;77.50;;;;;;4990181;28;20486;-76
2021/03/05 12:25:25;;;;;;;1.57;1.20;;;8.50;77.40;;;;;;5009304;28;20494;-76
2021/03/05 12:27:52;;;;;;;1.60;1.20;;;8.50;76.90;;;;;;4999390;28;20490;-76
2021/03/05 12:30:19;;;;;;;1.60;1.20;;;8.60;76.60;;;;;;5010044;28;20464;-76
2021/03/05 12:32:45;;;;;;;1.60;1.20;;;8.50;76.10;;;;;;5009359;28;20549;-77
2021/03/05 12:35:13;;;;;;;1.60;1.20;;;8.60;77.90;;;;;;5011238;28;20524;-77
2021/03/05 12:37:40;;;;;;;1.60;1.20;;;8.70;75.40;;;;;;4987109;28;20553;-76
2021/03/05 12:40:08;;;;;;;1.57;1.20;;;8.80;75.90;;;;;;5009924;28;20497;-76
2021/03/05 12:42:37;;;;;;;1.60;1.30;;;8.80;73.70;;;;;;5001719;28;20490;-77
2021/03/05 12:45:07;;;;;;;1.57;1.20;;;8.80;74.10;;;;;;5005945;28;20505;-77
2021/03/05 12:47:33;;;;;;;1.60;1.27;;;9.00;73.80;;;;;;5001927;28;20514;-76
2021/03/05 12:50:00;;;;;;;1.60;1.20;;;9.00;70.50;;;;;;5009571;28;20880;-77
2021/03/05 12:52:27;;;;;;;1.57;1.20;;;9.00;70.70;;;;;;4989518;28;20538;-77
2021/03/05 12:54:53;;;;;;;1.53;1.07;;;9.00;71.10;;;;;;5006144;28;20478;-76
2021/03/05 12:57:20;;;;;;;1.53;1.10;;;9.10;72.00;;;;;;5001068;28;20502;-76
2021/03/05 12:59:46;;;;;;;1.57;1.10;;;9.20;70.40;;;;;;5003781;28;20479;-77
2021/03/05 13:02:14;;;;;;;1.60;1.30;;;9.20;69.10;;;;;;5005901;28;21331;-76
2021/03/05 13:04:43;;;;;;;1.60;1.20;;;9.20;69.10;;;;;;5003406;28;20977;-76
2021/03/05 13:07:11;;;;;;;1.53;1.10;;;9.10;69.80;;;;;;5003062;28;21016;-75
2021/03/05 13:09:37;;;;;;;1.60;1.20;;;9.10;68.60;;;;;;5007462;28;20467;-77